Time;durP1;ratioP1;P1;durP2;ratioP2;P2;SDS_P1;SDS_P2;PMS_P1;PMS_P2;Temp;Humidity;BMP_temperature;BMP_pressure;BME280_temperature;BME280_humidity;BME280_pressure;Samples;Min_cycle;Max_cycle;Signal;HPM_P1;HPM_P2
2021/11/13 00:00:27;;;;;;;25.08;17.02;;;3.80;99.90;;;;;;4936565;29;20055;-81
2021/11/13 06:00:29;;;;;;;18.63;13.40;;;2.70;99.90;;;;;;5421704;23;20056;-79
2021/11/13 06:02:56;;;;;;;17.02;12.20;;;2.70;99.90;;;;;;4938375;29;20056;-79
2021/11/13 06:05:25;;;;;;;16.88;12.13;;;2.80;99.90;;;;;;4941872;29;20082;-78
2021/11/13 06:07:53;;;;;;;16.55;12.23;;;2.80;99.90;;;;;;4937655;29;20135;-82
2021/11/13 06:10:20;;;;;;;16.90;12.55;;;2.80;99.90;;;;;;4967157;29;20066;-80
2021/11/13 06:12:53;;;;;;;18.48;12.73;;;2.80;99.90;;;;;;4932369;29;20168;-80
2021/11/13 06:15:20;;;;;;;17.65;12.45;;;2.80;99.90;;;;;;4948744;29;20048;-80
2021/11/13 06:17:51;;;;;;;18.13;12.98;;;2.80;99.90;;;;;;4946185;29;20063;-80
2021/11/13 06:20:19;;;;;;;15.50;11.60;;;2.80;99.90;;;;;;4936209;29;20052;-80
2021/11/13 06:22:47;;;;;;;18.23;11.90;;;2.90;99.90;;;;;;4939495;29;20066;-82
2021/11/13 06:25:16;;;;;;;17.70;12.40;;;2.90;99.90;;;;;;4950293;29;20052;-82
2021/11/13 06:27:45;;;;;;;17.75;12.80;;;3.00;99.90;;;;;;4952182;29;20058;-81
2021/11/13 06:30:17;;;;;;;23.50;14.57;;;3.00;99.90;;;;;;4949474;29;20052;-79
2021/11/13 06:32:47;;;;;;;22.77;14.27;;;3.10;99.90;;;;;;4939402;29;20126;-81
2021/11/13 06:35:17;;;;;;;21.10;13.85;;;3.10;99.90;;;;;;4938486;29;20082;-79
2021/11/13 06:37:45;;;;;;;24.33;15.55;;;3.10;99.90;;;;;;4941901;29;20086;-82
2021/11/13 06:40:14;;;;;;;21.88;15.35;;;3.10;99.90;;;;;;4936887;29;20076;-79
2021/11/13 06:42:41;;;;;;;18.95;13.95;;;3.20;99.90;;;;;;4929046;29;20059;-81
2021/11/13 06:45:11;;;;;;;18.77;13.68;;;3.20;99.90;;;;;;4929432;29;20059;-80
2021/11/13 06:47:39;;;;;;;17.52;12.50;;;3.20;99.90;;;;;;4941528;29;20052;-81
2021/11/13 06:50:11;;;;;;;24.50;14.45;;;3.10;99.90;;;;;;4940978;29;20082;-81
2021/11/13 06:52:41;;;;;;;31.63;13.93;;;3.10;99.90;;;;;;4942836;29;20087;-80
2021/11/13 06:55:10;;;;;;;22.73;13.68;;;3.10;99.90;;;;;;4928509;29;20087;-78
2021/11/13 06:57:38;;;;;;;19.60;13.40;;;3.20;99.90;;;;;;4932292;29;20048;-81
2021/11/13 07:00:11;;;;;;;19.23;14.25;;;3.20;99.90;;;;;;4939138;29;20063;-82
2021/11/13 07:02:42;;;;;;;17.70;12.57;;;3.20;99.90;;;;;;4936407;29;20044;-80
2021/11/13 07:05:11;;;;;;;17.70;12.73;;;3.20;99.90;;;;;;4937744;29;20075;-80
2021/11/13 07:07:41;;;;;;;17.05;12.70;;;3.20;99.90;;;;;;4943082;29;20150;-80
2021/11/13 07:10:12;;;;;;;17.42;13.25;;;3.30;99.90;;;;;;4926081;29;20071;-80
2021/11/13 07:12:40;;;;;;;19.73;13.25;;;3.30;99.90;;;;;;4930626;29;20052;-79
2021/11/13 07:15:10;;;;;;;19.05;13.85;;;3.30;99.90;;;;;;4937327;29;20051;-80
2021/11/13 07:17:37;;;;;;;18.65;12.98;;;3.30;99.90;;;;;;4938037;29;20090;-80
2021/11/13 07:20:09;;;;;;;21.30;14.50;;;3.30;99.90;;;;;;4925808;29;20082;-81
2021/11/13 07:22:36;;;;;;;19.83;14.48;;;3.40;99.90;;;;;;4932689;29;20044;-81
2021/11/13 07:25:16;;;;;;;18.40;13.05;;;3.40;99.90;;;;;;4925306;29;20545;-80
2021/11/13 07:27:49;;;;;;;34.88;23.58;;;3.50;99.90;;;;;;4935493;29;20063;-79
2021/11/13 07:30:20;;;;;;;27.15;17.35;;;3.60;99.90;;;;;;4939536;29;20048;-84
2021/11/13 07:32:49;;;;;;;16.70;12.85;;;3.60;99.90;;;;;;4944085;29;20051;-82
2021/11/13 07:35:16;;;;;;;17.50;12.30;;;3.60;99.90;;;;;;4938114;29;20084;-82
2021/11/13 07:37:44;;;;;;;18.00;12.57;;;3.50;99.90;;;;;;4925023;29;20060;-81
2021/11/13 07:40:14;;;;;;;17.75;12.52;;;3.50;99.90;;;;;;4943679;29;20060;-82
2021/11/13 07:42:44;;;;;;;18.23;12.88;;;3.60;99.90;;;;;;4934541;29;20076;-83
2021/11/13 07:45:12;;;;;;;17.63;12.75;;;3.60;99.90;;;;;;4921757;29;20059;-83
2021/11/13 07:47:41;;;;;;;18.70;13.27;;;3.60;99.90;;;;;;4924502;29;20428;-83
2021/11/13 07:50:12;;;;;;;19.42;13.85;;;3.60;99.90;;;;;;4936799;29;20408;-81
2021/11/13 07:52:40;;;;;;;17.00;12.70;;;3.70;99.90;;;;;;4927921;29;20056;-80
2021/11/13 07:55:09;;;;;;;20.60;13.77;;;3.70;99.90;;;;;;4938283;29;20079;-80
2021/11/13 07:57:44;;;;;;;18.80;13.88;;;3.70;99.90;;;;;;4933477;29;20565;-81
2021/11/13 08:00:13;;;;;;;;;;;3.80;99.90;;;;;;4929511;29;20052;-81
2021/11/13 08:02:41;;;;;;;18.80;13.00;;;3.80;99.90;;;;;;4936312;29;19938;-81
2021/11/13 08:05:10;;;;;;;19.25;13.70;;;3.80;99.90;;;;;;4937836;29;20143;-81
2021/11/13 08:07:38;;;;;;;19.65;13.98;;;3.90;99.90;;;;;;4932354;29;20107;-82
2021/11/13 08:10:08;;;;;;;20.40;14.63;;;3.90;99.90;;;;;;4927700;29;20104;-82
2021/11/13 08:12:36;;;;;;;19.08;14.13;;;3.90;99.90;;;;;;4929478;29;20512;-79
2021/11/13 08:15:06;;;;;;;19.40;13.45;;;4.00;99.90;;;;;;4922013;29;20551;-79
2021/11/13 08:17:37;;;;;;;18.27;14.02;;;4.00;99.90;;;;;;4932487;29;20052;-79
2021/11/13 08:20:07;;;;;;;18.45;13.18;;;4.00;99.90;;;;;;4929050;29;20058;-79
2021/11/13 08:22:36;;;;;;;18.90;13.65;;;4.00;99.90;;;;;;4921528;29;20099;-79
2021/11/13 08:25:04;;;;;;;19.05;13.32;;;4.10;99.90;;;;;;4929286;29;20052;-80
2021/11/13 08:27:31;;;;;;;18.95;13.48;;;4.10;99.90;;;;;;4925407;29;20132;-81
2021/11/13 08:29:59;;;;;;;19.85;13.73;;;4.10;99.90;;;;;;4926177;29;20809;-81
2021/11/13 08:32:28;;;;;;;19.25;14.38;;;4.20;99.90;;;;;;4920796;29;20058;-82
2021/11/13 08:34:55;;;;;;;20.75;15.27;;;4.20;99.90;;;;;;4934353;29;20048;-82
2021/11/13 08:37:23;;;;;;;22.17;14.68;;;4.20;99.90;;;;;;4933346;29;20051;-81
2021/11/13 08:39:50;;;;;;;22.50;15.40;;;4.20;99.90;;;;;;4937091;29;20155;-81
2021/11/13 08:42:20;;;;;;;19.95;14.13;;;4.20;99.90;;;;;;4926997;29;20093;-81
2021/11/13 08:44:50;;;;;;;20.70;14.55;;;4.20;99.90;;;;;;4935056;29;20052;-82
2021/11/13 08:47:17;;;;;;;19.98;14.20;;;4.30;99.90;;;;;;4924580;29;20490;-81
2021/11/13 08:49:50;;;;;;;21.20;14.30;;;4.30;99.90;;;;;;4925835;29;20135;-82
2021/11/13 08:52:19;;;;;;;19.58;14.05;;;4.40;99.90;;;;;;4929841;29;20103;-81
2021/11/13 08:54:48;;;;;;;18.88;13.93;;;4.40;99.90;;;;;;4934022;29;20596;-81
2021/11/13 08:57:15;;;;;;;22.33;14.95;;;4.50;99.90;;;;;;4931877;29;20128;-82
2021/11/13 08:59:42;;;;;;;19.85;14.68;;;4.60;99.90;;;;;;4932349;29;20501;-81
2021/11/13 09:02:14;;;;;;;19.58;14.60;;;4.60;99.90;;;;;;4921911;29;20147;-81
2021/11/13 09:04:45;;;;;;;19.92;14.43;;;4.60;99.90;;;;;;4927651;29;20683;-78
2021/11/13 09:07:13;;;;;;;19.15;14.48;;;4.70;99.90;;;;;;4933696;29;20139;-79
2021/11/13 09:09:41;;;;;;;22.77;15.02;;;4.70;99.90;;;;;;4928070;29;20397;-79
2021/11/13 09:12:12;;;;;;;20.02;13.50;;;4.80;99.90;;;;;;4937418;29;20076;-81
2021/11/13 09:14:40;;;;;;;17.45;13.40;;;4.90;99.90;;;;;;4929699;29;20486;-79
2021/11/13 09:17:08;;;;;;;19.45;14.05;;;4.90;99.90;;;;;;4937896;29;20086;-78
2021/11/13 09:19:35;;;;;;;20.33;14.18;;;4.90;99.90;;;;;;4922506;29;20510;-80
2021/11/13 09:22:04;;;;;;;20.20;14.90;;;4.90;99.90;;;;;;4926439;29;20144;-79
2021/11/13 09:24:31;;;;;;;18.08;13.68;;;5.00;99.90;;;;;;4933272;29;20056;-83
2021/11/13 09:26:59;;;;;;;19.75;14.15;;;5.00;99.90;;;;;;4939136;29;20055;-83
2021/11/13 09:29:26;;;;;;;18.83;13.77;;;5.00;99.90;;;;;;4924220;29;20147;-83
2021/11/13 09:31:53;;;;;;;19.88;14.35;;;5.10;99.90;;;;;;4918314;29;21868;-82
2021/11/13 09:34:22;;;;;;;19.70;13.77;;;5.20;99.90;;;;;;4923413;29;20071;-87
2021/11/13 09:36:50;;;;;;;19.40;14.10;;;5.30;99.90;;;;;;4930636;29;20098;-84
2021/11/13 09:39:19;;;;;;;20.60;14.40;;;5.30;99.90;;;;;;4932272;29;20448;-80
2021/11/13 09:41:48;;;;;;;18.85;13.77;;;5.40;99.90;;;;;;4919636;29;20132;-80
2021/11/13 09:44:18;;;;;;;19.27;13.73;;;5.50;99.90;;;;;;4929718;29;20135;-80
2021/11/13 09:46:46;;;;;;;19.20;14.43;;;5.50;99.90;;;;;;4935060;29;20083;-80
2021/11/13 09:49:14;;;;;;;18.83;14.27;;;5.60;99.90;;;;;;4931419;29;20126;-81
2021/11/13 09:51:42;;;;;;;19.73;14.48;;;5.70;99.90;;;;;;4933179;29;20051;-83
2021/11/13 09:54:09;;;;;;;19.90;14.13;;;5.70;99.90;;;;;;4930679;29;20131;-82
2021/11/13 09:56:38;;;;;;;23.25;15.80;;;5.80;99.90;;;;;;4920226;29;20142;-82
2021/11/13 09:59:05;;;;;;;25.67;17.33;;;5.80;99.90;;;;;;4918422;29;20040;-82
2021/11/13 10:01:32;;;;;;;22.90;15.15;;;5.90;99.90;;;;;;4924413;29;20083;-81
2021/11/13 10:04:00;;;;;;;20.95;14.82;;;6.00;99.90;;;;;;4931896;29;20087;-82
2021/11/13 10:06:28;;;;;;;20.48;14.82;;;6.00;99.90;;;;;;4934049;29;20134;-81
2021/11/13 10:08:55;;;;;;;20.52;14.95;;;6.10;99.90;;;;;;4921403;29;20087;-80
2021/11/13 10:11:27;;;;;;;19.40;14.50;;;6.10;99.90;;;;;;4934673;29;20126;-81
2021/11/13 10:13:59;;;;;;;19.30;14.77;;;6.10;99.90;;;;;;4918440;29;20052;-83
2021/11/13 10:16:32;;;;;;;19.77;14.73;;;6.20;99.90;;;;;;4926357;29;20135;-83
2021/11/13 10:19:07;;;;;;;20.35;14.38;;;6.30;99.90;;;;;;4932188;29;20048;-83
2021/11/13 10:21:36;;;;;;;20.02;15.30;;;6.40;99.90;;;;;;4919754;29;20091;-84
2021/11/13 10:24:11;;;;;;;19.75;14.77;;;6.50;99.90;;;;;;4920668;29;20454;-82
2021/11/13 10:26:42;;;;;;;21.13;15.68;;;6.50;99.90;;;;;;4927152;29;20142;-81
2021/11/13 10:29:14;;;;;;;19.77;14.75;;;6.60;99.90;;;;;;4935138;29;20593;-84
2021/11/13 10:31:44;;;;;;;21.30;15.82;;;6.70;99.90;;;;;;4919498;29;20136;-83
2021/11/13 10:34:15;;;;;;;20.33;15.43;;;6.80;99.90;;;;;;4927631;29;20094;-83
2021/11/13 10:36:45;;;;;;;20.92;16.15;;;6.90;99.90;;;;;;4924798;29;20138;-84
2021/11/13 10:39:16;;;;;;;19.80;15.15;;;7.00;99.90;;;;;;4933080;29;20058;-85
2021/11/13 10:41:46;;;;;;;21.45;14.98;;;7.10;99.90;;;;;;4915995;29;20052;-84
2021/11/13 10:44:17;;;;;;;19.50;14.45;;;7.30;99.90;;;;;;4921831;29;20052;-87
2021/11/13 10:46:47;;;;;;;20.20;15.48;;;7.40;99.90;;;;;;4917846;29;20056;-85
2021/11/13 10:49:15;;;;;;;19.17;14.40;;;7.50;99.90;;;;;;4925971;29;20087;-84
2021/11/13 10:51:51;;;;;;;18.88;14.85;;;7.60;99.90;;;;;;4919138;29;20451;-84
2021/11/13 10:54:19;;;;;;;18.88;14.13;;;7.70;99.90;;;;;;4934213;29;20059;-84
2021/11/13 10:56:50;;;;;;;18.58;13.00;;;7.70;99.90;;;;;;4933709;29;20055;-81
2021/11/13 10:59:24;;;;;;;19.23;13.77;;;7.80;99.90;;;;;;4922781;29;20127;-83
2021/11/13 11:01:51;;;;;;;18.27;14.00;;;7.80;99.90;;;;;;4920488;29;20135;-84
2021/11/13 11:04:22;;;;;;;18.23;14.10;;;7.80;99.90;;;;;;4925091;29;20044;-82
2021/11/13 11:06:54;;;;;;;19.85;14.77;;;7.80;99.90;;;;;;4925953;29;20131;-84
2021/11/13 11:09:29;;;;;;;21.13;14.75;;;7.80;99.90;;;;;;4917749;29;20143;-83
2021/11/13 11:11:59;;;;;;;20.45;15.38;;;7.80;99.90;;;;;;4920113;29;20144;-84
2021/11/13 11:14:30;;;;;;;20.05;14.77;;;7.90;99.90;;;;;;4929665;29;20075;-83
2021/11/13 11:17:01;;;;;;;20.13;15.15;;;7.90;99.90;;;;;;4925280;29;20512;-83
2021/11/13 11:19:31;;;;;;;21.15;14.95;;;7.90;99.90;;;;;;4923123;29;20553;-84
2021/11/13 11:22:01;;;;;;;19.83;15.32;;;7.80;99.90;;;;;;4924427;29;20123;-84
2021/11/13 11:24:39;;;;;;;20.25;15.52;;;7.90;99.90;;;;;;4930930;29;20090;-84
2021/11/13 11:27:18;;;;;;;22.05;15.27;;;7.90;99.90;;;;;;4931209;29;20530;-84
2021/11/13 11:29:55;;;;;;;20.20;15.57;;;7.90;99.90;;;;;;4939574;29;20107;-81
2021/11/13 11:32:26;;;;;;;20.88;15.70;;;7.90;99.90;;;;;;4932484;29;20124;-83
2021/11/13 11:34:55;;;;;;;21.50;15.68;;;8.00;99.90;;;;;;4926542;29;20083;-80
2021/11/13 11:37:25;;;;;;;24.25;16.48;;;8.00;99.90;;;;;;4928735;29;20052;-78
2021/11/13 11:39:57;;;;;;;20.88;15.77;;;8.00;99.90;;;;;;4931013;29;20158;-81
2021/11/13 11:42:26;;;;;;;20.13;14.70;;;8.00;99.90;;;;;;4932083;29;20134;-77
2021/11/13 11:44:58;;;;;;;20.02;14.65;;;8.00;99.90;;;;;;4924800;29;20143;-79
2021/11/13 11:47:28;;;;;;;18.58;13.98;;;7.90;99.90;;;;;;4928788;29;20079;-78
2021/11/13 11:49:58;;;;;;;18.23;13.65;;;7.90;99.90;;;;;;4925645;29;20138;-78
2021/11/13 11:52:28;;;;;;;20.27;14.32;;;7.90;99.90;;;;;;4935216;29;20036;-82
2021/11/13 11:54:57;;;;;;;18.50;14.40;;;7.90;99.90;;;;;;4923143;29;20054;-87
2021/11/13 11:57:28;;;;;;;18.38;14.43;;;7.90;99.90;;;;;;4929728;29;20547;-85
2021/11/13 12:00:00;;;;;;;20.50;14.63;;;7.80;99.90;;;;;;4933593;29;20082;-85
2021/11/13 12:02:37;;;;;;;19.90;14.70;;;7.90;99.90;;;;;;4926453;29;20052;-86
2021/11/13 12:05:10;;;;;;;19.60;14.48;;;7.90;99.90;;;;;;4943633;29;20048;-86
2021/11/13 12:07:38;;;;;;;20.63;15.10;;;7.90;99.90;;;;;;4943144;29;20052;-85
2021/11/13 12:10:09;;;;;;;22.90;15.57;;;7.90;99.90;;;;;;4928519;29;20063;-85
2021/11/13 12:12:40;;;;;;;22.65;17.15;;;7.90;99.90;;;;;;4930944;29;20076;-83
2021/11/13 12:15:22;;;;;;;21.75;16.77;;;7.90;99.90;;;;;;4931145;29;20103;-84
2021/11/13 12:17:52;;;;;;;22.48;16.45;;;7.80;99.90;;;;;;4928299;29;20048;-76
2021/11/13 12:20:32;;;;;;;24.58;17.10;;;7.70;99.90;;;;;;4932194;29;20142;-78
2021/11/13 12:23:26;;;;;;;22.40;16.55;;;7.70;99.90;;;;;;4919787;29;20072;-79
2021/11/13 12:26:10;;;;;;;26.65;17.77;;;7.70;99.90;;;;;;4928804;29;20142;-79
2021/11/13 12:28:51;;;;;;;;;;;7.60;99.90;;;;;;4924108;29;20052;-81
2021/11/13 12:31:21;;;;;;;22.42;15.05;;;7.60;99.90;;;;;;4925897;29;20014;-83
2021/11/13 12:34:13;;;;;;;21.15;15.18;;;7.60;99.90;;;;;;4929807;29;20075;-80
2021/11/13 12:36:58;;;;;;;20.20;15.40;;;7.60;99.90;;;;;;4924476;29;20687;-82
2021/11/13 12:39:28;;;;;;;20.65;15.38;;;7.60;99.90;;;;;;4932519;29;20089;-83
2021/11/13 12:42:06;;;;;;;20.40;15.40;;;7.70;99.90;;;;;;4937647;29;20051;-81
2021/11/13 12:44:45;;;;;;;20.35;14.63;;;7.70;99.90;;;;;;4925461;29;20150;-80
2021/11/13 12:47:21;;;;;;;19.77;14.50;;;7.70;99.90;;;;;;4921539;29;20056;-80
2021/11/13 12:49:55;;;;;;;16.67;12.57;;;7.70;99.90;;;;;;4915945;29;20389;-83
2021/11/13 12:52:38;;;;;;;;;;;7.70;99.90;;;;;;4928225;29;20467;-81
2021/11/13 12:55:27;;;;;;;17.48;13.13;;;7.80;99.90;;;;;;4926521;29;20403;-82
2021/11/13 12:58:14;;;;;;;15.65;11.98;;;7.90;99.90;;;;;;4917961;29;20114;-81
2021/11/13 13:00:48;;;;;;;16.75;10.95;;;7.90;99.90;;;;;;4924435;29;20143;-82
2021/11/13 13:03:26;;;;;;;14.80;9.77;;;8.00;99.90;;;;;;4919626;29;20102;-82
2021/11/13 13:05:53;;;;;;;14.15;9.30;;;8.00;99.90;;;;;;4924087;29;20051;-80
2021/11/13 13:08:23;;;;;;;11.57;8.10;;;8.00;99.90;;;;;;4929649;29;20122;-80
2021/11/13 13:10:50;;;;;;;11.98;7.90;;;8.10;99.90;;;;;;4925817;29;20055;-79
2021/11/13 13:13:19;;;;;;;12.43;7.85;;;8.10;99.90;;;;;;4936640;29;20086;-79
2021/11/13 13:15:56;;;;;;;11.77;8.02;;;8.10;99.90;;;;;;4934829;29;20140;-78
2021/11/13 13:18:27;;;;;;;12.60;8.48;;;8.20;99.90;;;;;;4923762;29;20134;-80
2021/11/13 13:20:55;;;;;;;13.38;8.48;;;8.20;99.90;;;;;;4926476;29;20138;-80
2021/11/13 13:23:26;;;;;;;11.88;8.45;;;8.30;99.90;;;;;;4930328;29;20051;-79
2021/11/13 13:25:56;;;;;;;13.65;8.93;;;8.30;99.90;;;;;;4934260;29;20142;-81
2021/11/13 13:28:28;;;;;;;14.15;9.30;;;8.30;99.90;;;;;;4923635;29;20048;-79
2021/11/13 13:30:56;;;;;;;13.50;8.88;;;8.30;99.90;;;;;;4931663;29;20087;-80
2021/11/13 13:33:25;;;;;;;14.15;8.90;;;8.40;99.90;;;;;;4931504;29;20126;-77
2021/11/13 13:35:54;;;;;;;11.30;7.93;;;8.40;99.90;;;;;;4931019;29;20131;-79
2021/11/13 13:38:23;;;;;;;11.05;7.05;;;8.40;99.90;;;;;;4927454;29;20048;-78
2021/11/13 13:40:54;;;;;;;12.13;7.47;;;8.40;99.90;;;;;;4924440;29;20115;-79
2021/11/13 13:43:27;;;;;;;11.65;7.20;;;8.50;99.90;;;;;;4927967;29;20126;-78
2021/11/13 13:45:58;;;;;;;11.68;7.53;;;8.50;99.90;;;;;;4932377;29;20079;-79
2021/11/13 13:48:34;;;;;;;11.85;7.60;;;8.50;99.90;;;;;;4924277;29;20405;-80
2021/11/13 13:51:08;;;;;;;11.23;7.55;;;8.60;99.90;;;;;;4934282;29;20044;-81
2021/11/13 13:53:48;;;;;;;12.55;7.85;;;8.60;99.90;;;;;;4924619;29;20139;-77
2021/11/13 13:56:21;;;;;;;11.25;7.35;;;8.60;99.90;;;;;;4927852;29;20138;-79
2021/11/13 13:58:48;;;;;;;11.13;7.45;;;8.60;99.90;;;;;;4926327;29;20131;-80
2021/11/13 14:01:15;;;;;;;10.43;6.85;;;8.70;99.90;;;;;;4926283;29;20131;-77
2021/11/13 14:03:44;;;;;;;11.48;7.25;;;8.70;99.90;;;;;;4924102;29;20083;-80
2021/11/13 14:06:11;;;;;;;11.07;7.18;;;8.70;99.90;;;;;;4929530;29;20056;-80
2021/11/13 14:08:47;;;;;;;10.38;6.43;;;8.70;99.90;;;;;;4945444;29;20142;-79
2021/11/13 14:11:14;;;;;;;10.55;6.25;;;8.70;99.90;;;;;;4922210;29;20054;-79
2021/11/13 14:13:42;;;;;;;9.30;6.10;;;8.70;99.90;;;;;;4934299;29;20055;-78
2021/11/13 14:16:10;;;;;;;9.73;6.63;;;8.70;99.90;;;;;;4935687;29;20091;-79
2021/11/13 14:18:41;;;;;;;10.18;6.50;;;8.70;99.90;;;;;;4930818;29;20142;-83
2021/11/13 14:21:10;;;;;;;8.43;5.90;;;8.70;99.90;;;;;;4925503;29;20130;-82
2021/11/13 14:23:40;;;;;;;11.05;6.28;;;8.80;99.90;;;;;;4927232;29;20147;-82
2021/11/13 14:26:10;;;;;;;9.73;5.95;;;8.70;99.90;;;;;;4928358;29;20130;-82
2021/11/13 14:28:40;;;;;;;8.98;5.68;;;8.80;99.90;;;;;;4928775;29;20068;-82
2021/11/13 14:31:14;;;;;;;11.13;6.55;;;8.70;99.90;;;;;;4923016;29;20044;-81
2021/11/13 14:33:48;;;;;;;10.45;6.45;;;8.70;99.90;;;;;;4928473;29;20097;-81
2021/11/13 14:36:22;;;;;;;11.05;7.20;;;8.70;99.90;;;;;;4929305;29;20147;-82
2021/11/13 14:39:00;;;;;;;10.68;6.80;;;8.70;99.90;;;;;;4929518;29;20131;-81
2021/11/13 14:41:28;;;;;;;10.45;6.90;;;8.70;99.90;;;;;;4929627;29;20123;-81
2021/11/13 14:44:11;;;;;;;11.18;7.22;;;8.70;99.90;;;;;;4923409;29;20130;-81
2021/11/13 14:46:45;;;;;;;9.98;6.25;;;8.80;99.90;;;;;;4925919;29;20059;-83
2021/11/13 14:49:12;;;;;;;11.07;6.93;;;8.70;99.90;;;;;;4931342;29;20075;-82
2021/11/13 14:51:45;;;;;;;13.25;7.20;;;8.70;99.90;;;;;;4938639;29;20082;-82
2021/11/13 14:54:15;;;;;;;10.45;6.75;;;8.80;99.90;;;;;;4933169;29;20059;-81
2021/11/13 14:56:44;;;;;;;11.13;6.80;;;8.80;99.90;;;;;;4923701;29;20454;-81
2021/11/13 14:59:15;;;;;;;11.43;7.22;;;8.80;99.90;;;;;;4930202;29;20127;-81
2021/11/13 15:01:46;;;;;;;10.45;6.45;;;8.80;99.90;;;;;;4925382;29;20066;-80
2021/11/13 15:04:23;;;;;;;10.70;6.43;;;8.80;99.90;;;;;;4925682;29;20075;-81
2021/11/13 15:07:06;;;;;;;10.73;6.32;;;8.80;99.90;;;;;;4931329;29;20126;-78
2021/11/13 15:09:37;;;;;;;9.90;5.63;;;8.90;99.90;;;;;;4927555;29;20087;-80
2021/11/13 15:12:08;;;;;;;8.07;5.45;;;8.90;99.90;;;;;;4928825;29;20163;-78
2021/11/13 15:14:39;;;;;;;10.63;6.40;;;8.90;99.90;;;;;;4928768;29;20135;-76
2021/11/13 15:17:17;;;;;;;11.30;5.85;;;9.00;99.90;;;;;;4932753;29;20048;-82
2021/11/13 15:19:47;;;;;;;8.75;5.50;;;9.00;99.90;;;;;;4930736;29;20060;-80
2021/11/13 15:22:24;;;;;;;10.00;6.18;;;9.10;99.90;;;;;;4933087;29;20126;-80
2021/11/13 15:24:52;;;;;;;8.23;5.13;;;9.10;99.90;;;;;;4921998;29;20529;-80
2021/11/13 15:27:26;;;;;;;9.48;5.43;;;9.20;99.90;;;;;;4929269;29;20477;-79
2021/11/13 15:29:54;;;;;;;10.98;6.63;;;9.20;99.90;;;;;;4919396;29;20143;-77
2021/11/13 15:32:27;;;;;;;13.60;8.38;;;9.20;99.90;;;;;;4928994;29;20119;-78
2021/11/13 15:34:55;;;;;;;10.50;6.53;;;9.20;99.90;;;;;;4925242;29;20090;-80
2021/11/13 15:37:29;;;;;;;10.40;6.20;;;9.20;99.90;;;;;;4920670;29;20561;-82
2021/11/13 15:40:03;;;;;;;9.85;5.93;;;9.20;99.90;;;;;;4931039;29;20052;-79
2021/11/13 15:42:35;;;;;;;9.02;5.68;;;9.20;99.90;;;;;;4920056;29;20557;-78
2021/11/13 15:45:06;;;;;;;9.98;5.65;;;9.30;99.90;;;;;;4928768;29;20052;-76
2021/11/13 15:47:33;;;;;;;9.98;6.13;;;9.30;99.90;;;;;;4932719;29;20059;-80
2021/11/13 15:50:02;;;;;;;9.98;6.40;;;9.20;99.90;;;;;;4922703;29;20135;-80
2021/11/13 15:52:38;;;;;;;8.88;5.28;;;9.20;99.90;;;;;;4936375;29;20059;-79
2021/11/13 15:55:10;;;;;;;8.43;5.53;;;9.30;99.90;;;;;;4934687;29;20134;-80
2021/11/13 15:57:37;;;;;;;8.77;5.50;;;9.30;99.90;;;;;;4928795;29;20566;-81
2021/11/13 16:00:09;;;;;;;9.63;5.90;;;9.30;99.90;;;;;;4930145;29;20131;-81
2021/11/13 16:02:36;;;;;;;9.35;5.95;;;9.30;99.90;;;;;;4938368;29;20123;-79
2021/11/13 16:05:05;;;;;;;9.48;6.13;;;9.30;99.90;;;;;;4934337;29;20131;-80
2021/11/13 16:07:33;;;;;;;9.48;5.82;;;9.30;99.90;;;;;;4929828;29;20131;-78
2021/11/13 16:10:01;;;;;;;13.77;6.55;;;9.30;99.90;;;;;;4933186;29;20043;-80
2021/11/13 16:12:28;;;;;;;9.73;6.40;;;9.30;99.90;;;;;;4929484;29;20135;-79
2021/11/13 16:14:55;;;;;;;9.20;5.90;;;9.30;99.90;;;;;;4935245;29;20129;-78
2021/11/13 16:17:23;;;;;;;8.63;5.47;;;9.40;99.90;;;;;;4932078;29;20051;-78
2021/11/13 16:19:50;;;;;;;9.18;5.57;;;9.40;99.90;;;;;;4925465;29;20489;-77
2021/11/13 16:22:18;;;;;;;9.73;5.55;;;9.40;99.90;;;;;;4932981;29;20047;-80
2021/11/13 16:24:47;;;;;;;8.88;5.95;;;9.40;99.90;;;;;;4934154;29;20134;-77
2021/11/13 16:27:15;;;;;;;9.32;5.80;;;9.40;99.90;;;;;;4936303;29;20131;-78
2021/11/13 16:29:43;;;;;;;9.30;5.70;;;9.40;99.90;;;;;;4931567;29;20075;-78
2021/11/13 16:32:10;;;;;;;9.38;5.85;;;9.40;99.90;;;;;;4928935;29;20126;-79
2021/11/13 16:34:39;;;;;;;9.10;5.80;;;9.50;99.90;;;;;;4936648;29;20087;-77
2021/11/13 16:37:06;;;;;;;9.10;5.90;;;9.40;99.90;;;;;;4932635;29;20059;-80
2021/11/13 16:39:34;;;;;;;14.75;9.05;;;9.50;99.90;;;;;;4952864;29;20090;-79
2021/11/13 16:42:03;;;;;;;13.35;8.18;;;9.50;99.90;;;;;;4944398;28;20052;-80
2021/11/13 16:44:31;;;;;;;10.82;6.55;;;9.50;99.90;;;;;;4927468;29;20048;-82
2021/11/13 16:46:58;;;;;;;8.88;5.97;;;9.50;99.90;;;;;;4928818;29;20050;-80
2021/11/13 16:49:26;;;;;;;8.68;6.03;;;9.50;99.90;;;;;;4938767;29;20158;-80
2021/11/13 16:51:54;;;;;;;10.13;5.50;;;9.50;99.90;;;;;;4931115;29;20564;-77
2021/11/13 16:54:21;;;;;;;9.20;5.70;;;9.50;99.90;;;;;;4933240;29;20052;-79
2021/11/13 16:56:50;;;;;;;8.50;5.60;;;9.50;99.90;;;;;;4928617;29;20048;-77
2021/11/13 16:59:18;;;;;;;8.90;5.35;;;9.50;99.90;;;;;;4924973;29;20594;-80
2021/11/13 17:01:50;;;;;;;9.60;5.63;;;9.50;99.90;;;;;;4924585;29;20052;-78
2021/11/13 17:04:18;;;;;;;9.00;5.70;;;9.50;99.90;;;;;;4930660;29;20051;-77
2021/11/13 17:06:46;;;;;;;8.50;5.28;;;9.50;99.90;;;;;;4934426;29;20082;-77
2021/11/13 17:09:16;;;;;;;8.20;5.30;;;9.50;99.90;;;;;;4932456;29;20064;-79
2021/11/13 17:11:47;;;;;;;8.65;5.10;;;9.50;99.90;;;;;;4926256;29;20062;-78
2021/11/13 17:14:15;;;;;;;7.22;4.93;;;9.60;99.90;;;;;;4935257;29;20112;-80
2021/11/13 17:16:50;;;;;;;7.82;4.90;;;9.60;99.90;;;;;;4921426;29;20055;-77
2021/11/13 17:19:17;;;;;;;8.50;5.20;;;9.50;99.90;;;;;;4922767;29;20443;-75
2021/11/13 17:21:48;;;;;;;9.10;5.35;;;9.60;99.90;;;;;;4930301;29;20151;-78
2021/11/13 17:24:17;;;;;;;7.68;5.20;;;9.60;99.90;;;;;;4926153;29;20059;-75
2021/11/13 17:26:44;;;;;;;8.80;5.10;;;9.60;99.90;;;;;;4922740;29;20107;-79
2021/11/13 17:29:14;;;;;;;7.78;5.10;;;9.60;99.90;;;;;;4925276;29;20131;-79
2021/11/13 17:31:43;;;;;;;8.15;5.32;;;9.60;99.90;;;;;;4927571;29;20088;-77
2021/11/13 17:34:11;;;;;;;8.90;5.97;;;9.50;99.90;;;;;;4917496;29;20135;-77
2021/11/13 17:36:41;;;;;;;8.60;5.70;;;9.50;99.90;;;;;;4929439;29;20139;-76
2021/11/13 17:39:09;;;;;;;9.85;6.07;;;9.50;99.90;;;;;;4917958;29;20048;-74
2021/11/13 17:41:37;;;;;;;9.93;5.85;;;9.40;99.90;;;;;;4926541;29;20055;-77
2021/11/13 17:44:04;;;;;;;9.18;5.78;;;9.40;99.90;;;;;;4915912;29;20486;-76
2021/11/13 17:46:31;;;;;;;10.55;6.55;;;9.40;99.90;;;;;;4914186;29;20056;-77
2021/11/13 17:49:00;;;;;;;10.48;6.65;;;9.40;99.90;;;;;;4929043;29;20126;-75
2021/11/13 17:51:27;;;;;;;12.30;6.95;;;9.40;99.90;;;;;;4928698;29;20127;-76
2021/11/13 17:53:54;;;;;;;10.48;6.72;;;9.40;99.90;;;;;;4922243;29;20139;-81
2021/11/13 17:56:21;;;;;;;9.95;6.40;;;9.40;99.90;;;;;;4929930;29;20139;-77
2021/11/13 17:58:48;;;;;;;10.73;6.63;;;9.50;99.90;;;;;;4920122;29;20139;-78
2021/11/13 18:01:20;;;;;;;10.55;6.50;;;9.40;99.90;;;;;;4913564;29;20139;-79
2021/11/13 18:03:47;;;;;;;10.07;6.32;;;9.50;99.90;;;;;;4929820;29;20131;-79
2021/11/13 18:06:16;;;;;;;10.13;6.57;;;9.40;99.90;;;;;;4920322;29;20159;-79
2021/11/13 18:08:44;;;;;;;10.25;6.30;;;9.40;99.90;;;;;;4927314;29;20813;-79
2021/11/13 18:11:15;;;;;;;9.15;6.43;;;9.40;99.90;;;;;;4921743;29;20597;-80
2021/11/13 18:13:43;;;;;;;11.60;7.03;;;9.40;99.90;;;;;;4928969;29;20572;-78
2021/11/13 18:16:11;;;;;;;9.55;6.10;;;9.40;99.90;;;;;;4919618;29;20130;-79
2021/11/13 18:18:38;;;;;;;11.65;7.40;;;9.30;99.90;;;;;;4935413;29;20409;-79
2021/11/13 18:21:06;;;;;;;11.30;6.95;;;9.40;99.90;;;;;;4915176;29;20143;-78
2021/11/13 18:23:35;;;;;;;10.70;6.78;;;9.40;99.90;;;;;;4929716;29;20079;-78
2021/11/13 18:26:03;;;;;;;10.80;7.07;;;9.40;99.90;;;;;;4921541;29;20043;-76
2021/11/13 18:28:30;;;;;;;10.27;6.45;;;9.30;99.90;;;;;;4921593;29;20139;-78
2021/11/13 18:30:57;;;;;;;9.35;5.97;;;9.30;99.90;;;;;;4921543;29;20044;-75
2021/11/13 18:33:25;;;;;;;10.73;7.15;;;9.30;99.90;;;;;;4917938;29;20052;-79
2021/11/13 18:35:55;;;;;;;10.25;7.00;;;9.30;99.90;;;;;;4915371;29;20058;-79
2021/11/13 18:38:22;;;;;;;11.32;7.60;;;9.30;99.90;;;;;;4927075;29;20043;-77
2021/11/13 18:40:54;;;;;;;11.25;7.57;;;9.30;99.90;;;;;;4925205;29;20142;-77
2021/11/13 18:43:22;;;;;;;9.85;7.00;;;9.30;99.90;;;;;;4920181;29;20055;-78
2021/11/13 18:45:50;;;;;;;11.90;7.20;;;9.30;99.90;;;;;;4917388;29;20080;-78
2021/11/13 18:48:19;;;;;;;10.65;7.35;;;9.30;99.90;;;;;;4928605;29;20048;-76
2021/11/13 18:50:49;;;;;;;11.60;7.63;;;9.20;99.90;;;;;;4916714;29;20075;-75
2021/11/13 18:53:16;;;;;;;11.75;7.68;;;9.20;99.90;;;;;;4924608;29;20110;-79
2021/11/13 18:55:43;;;;;;;12.65;8.02;;;9.20;99.90;;;;;;4919258;29;20056;-79
2021/11/13 18:58:12;;;;;;;12.13;7.88;;;9.20;99.90;;;;;;4919968;29;20551;-76